createdAt,value
2022-09-12T00:03:24.036Z,10.10
2022-09-12T00:13:31.861Z,7.97
2022-09-12T00:18:37.490Z,10.75
2022-09-12T00:23:40.893Z,11.10
2022-09-12T00:28:45.159Z,9.68
2022-09-12T00:33:50.017Z,11.30
2022-09-12T00:38:55.352Z,9.25
2022-09-12T00:44:00.140Z,10.85
2022-09-12T00:54:16.601Z,11.40
2022-09-12T00:59:24.529Z,9.63
2022-09-12T01:04:30.386Z,8.48
2022-09-12T01:09:34.982Z,10.38
2022-09-12T01:14:39.814Z,12.48
2022-09-12T01:25:12.698Z,13.48
2022-09-12T01:30:46.199Z,11.63
2022-09-12T01:36:03.240Z,19.35
2022-09-12T01:41:19.725Z,12.20
2022-09-12T01:46:32.808Z,14.77
2022-09-12T01:51:40.026Z,14.15
2022-09-12T01:56:47.910Z,11.48
2022-09-12T02:01:59.992Z,10.45
2022-09-12T02:07:08.238Z,11.65
2022-09-12T02:12:16.135Z,10.05
2022-09-12T02:17:24.726Z,10.25
2022-09-12T02:22:30.648Z,9.73
2022-09-12T02:27:38.347Z,10.05
2022-09-12T02:32:52.254Z,12.88
2022-09-12T02:38:04.167Z,11.38
2022-09-12T02:43:08.376Z,11.50
2022-09-12T02:48:19.551Z,11.93
2022-09-12T02:53:24.310Z,13.13
2022-09-12T03:04:03.050Z,11.82
2022-09-12T03:09:14.078Z,12.38
2022-09-12T03:14:28.085Z,12.45
2022-09-12T03:19:44.079Z,13.13
2022-09-12T03:24:54.452Z,14.18
2022-09-12T03:29:59.414Z,15.02
2022-09-12T03:35:05.547Z,14.27
2022-09-12T03:40:12.713Z,14.50
2022-09-12T03:45:16.729Z,15.80
2022-09-12T03:50:22.721Z,13.57
2022-09-12T03:55:27.628Z,14.77
2022-09-12T04:05:38.929Z,17.00
2022-09-12T04:10:43.870Z,19.55
2022-09-12T04:15:58.815Z,19.25
2022-09-12T04:21:07.795Z,19.35
2022-09-12T04:26:14.480Z,24.70
2022-09-12T04:31:21.596Z,19.08
2022-09-12T04:36:28.392Z,22.95
2022-09-12T04:41:38.126Z,21.83
2022-09-12T04:46:45.420Z,20.70
2022-09-12T04:51:51.140Z,24.33
2022-09-12T04:56:56.051Z,21.63
2022-09-12T05:07:05.901Z,22.77
2022-09-12T05:12:10.243Z,18.10
2022-09-12T05:17:14.433Z,19.17
2022-09-12T05:22:19.288Z,25.50
2022-09-12T05:32:26.583Z,20.73
2022-09-12T05:37:32.090Z,19.98
2022-09-12T05:42:35.765Z,19.98
2022-09-12T05:47:40.171Z,20.80
2022-09-12T05:52:44.944Z,22.42
2022-09-12T06:08:39.675Z,20.08
2022-09-12T06:13:44.565Z,19.88
2022-09-12T06:18:49.824Z,19.50
2022-09-12T06:23:55.500Z,20.70
2022-09-12T06:29:02.534Z,18.17
2022-09-12T06:34:07.766Z,18.33
2022-09-12T06:39:14.558Z,17.10
2022-09-12T06:44:19.600Z,19.02
2022-09-12T06:49:22.992Z,16.23
2022-09-12T06:54:27.696Z,13.70
2022-09-12T07:04:36.785Z,14.05
2022-09-12T07:09:42.334Z,15.82
2022-09-12T07:14:45.751Z,14.68
2022-09-12T07:19:53.966Z,14.57
2022-09-12T07:25:00.296Z,12.55
2022-09-12T07:30:05.092Z,16.67
2022-09-12T07:35:09.204Z,12.98
2022-09-12T07:40:15.899Z,10.75
2022-09-12T07:45:19.220Z,11.05
2022-09-12T07:50:23.894Z,11.73
2022-09-12T08:05:40.138Z,9.27
2022-09-12T08:10:45.525Z,8.65
2022-09-12T08:15:49.920Z,11.05
2022-09-12T08:20:59.202Z,8.25
2022-09-12T08:26:06.623Z,7.97
2022-09-12T08:31:13.901Z,10.75
2022-09-12T08:36:20.473Z,8.30
2022-09-12T08:41:31.184Z,5.97
2022-09-12T08:46:41.874Z,6.10
2022-09-12T08:51:46.314Z,8.25
2022-09-12T08:56:51.850Z,8.23
2022-09-12T09:02:02.213Z,10.25
2022-09-12T09:07:19.703Z,10.63
2022-09-12T09:12:33.342Z,13.05
2022-09-12T09:17:42.011Z,14.00
2022-09-12T09:22:50.664Z,16.33
2022-09-12T09:28:03.955Z,15.30
2022-09-12T09:33:12.512Z,18.33
2022-09-12T09:38:26.335Z,16.77
2022-09-12T09:43:31.528Z,16.23
2022-09-12T09:48:38.805Z,17.85
2022-09-12T09:53:46.841Z,17.70
2022-09-12T09:58:52.424Z,18.25
2022-09-12T10:03:57.457Z,16.92
2022-09-12T10:09:22.904Z,20.10
2022-09-12T10:14:37.216Z,18.38
2022-09-12T10:19:42.021Z,21.95
2022-09-12T10:24:52.421Z,17.63
2022-09-12T10:30:04.141Z,17.38
2022-09-12T10:35:17.866Z,18.85
2022-09-12T10:40:27.261Z,18.35
2022-09-12T10:45:34.058Z,14.60
2022-09-12T10:50:42.788Z,16.10
2022-09-12T10:56:04.949Z,15.77
2022-09-12T11:01:18.912Z,18.63
2022-09-12T11:06:28.894Z,13.37
2022-09-12T11:11:52.209Z,15.80
2022-09-12T11:17:13.351Z,12.35
2022-09-12T11:22:32.038Z,13.85
2022-09-12T11:27:51.027Z,13.48
2022-09-12T11:33:07.926Z,13.45
2022-09-12T11:38:52.987Z,13.93
2022-09-12T11:44:03.757Z,16.92
2022-09-12T11:49:22.648Z,13.40
2022-09-12T11:54:31.791Z,13.07
2022-09-12T11:59:46.225Z,12.60
2022-09-12T12:05:03.334Z,12.95
2022-09-12T12:10:10.159Z,12.77
2022-09-12T12:15:16.052Z,13.80
2022-09-12T12:20:22.183Z,12.90
2022-09-12T12:25:40.629Z,11.52
2022-09-12T12:31:07.004Z,14.68
2022-09-12T12:36:31.563Z,10.70
2022-09-12T12:41:46.967Z,16.70
2022-09-12T12:47:19.097Z,13.23
2022-09-12T12:52:24.688Z,13.98
2022-09-12T12:57:33.081Z,14.18
2022-09-12T13:02:41.524Z,12.27
2022-09-12T13:07:48.981Z,13.65
2022-09-12T13:12:53.390Z,11.73
2022-09-12T13:18:03.526Z,10.02
2022-09-12T13:23:23.744Z,12.18
2022-09-12T13:28:28.904Z,11.77
2022-09-12T13:33:37.891Z,13.98
2022-09-12T13:38:54.599Z,12.25
2022-09-12T13:43:58.363Z,11.95
2022-09-12T13:49:08.519Z,12.00
2022-09-12T13:54:23.938Z,8.63
2022-09-12T13:59:28.765Z,9.43
2022-09-12T14:04:49.553Z,8.77
2022-09-12T14:09:58.884Z,7.13
2022-09-12T14:15:02.980Z,7.57
2022-09-12T14:20:14.578Z,7.55
2022-09-12T14:25:22.675Z,9.00
2022-09-12T14:30:29.570Z,7.10
2022-09-12T14:35:34.553Z,7.70
2022-09-12T14:40:46.179Z,9.00
2022-09-12T14:45:57.761Z,8.25
2022-09-12T14:51:02.674Z,10.52
2022-09-12T14:56:15.219Z,8.73
2022-09-12T15:01:29.342Z,6.68
2022-09-12T15:06:36.866Z,6.78
2022-09-12T15:11:43.008Z,9.20
2022-09-12T15:16:47.272Z,8.73
2022-09-12T15:21:51.574Z,6.65
2022-09-12T15:26:57.638Z,7.72
2022-09-12T15:32:02.151Z,8.40
2022-09-12T15:37:11.939Z,8.55
2022-09-12T15:42:19.614Z,8.15
2022-09-12T15:47:23.972Z,8.40
2022-09-12T15:52:27.636Z,7.90
2022-09-12T15:57:33.666Z,8.13
2022-09-12T16:02:37.316Z,8.43
2022-09-12T16:07:41.319Z,8.68
2022-09-12T16:12:47.473Z,6.10
2022-09-12T16:17:52.957Z,8.05
2022-09-12T16:22:56.649Z,9.25
2022-09-12T16:28:03.260Z,7.20
2022-09-12T16:33:07.559Z,6.88
2022-09-12T16:38:12.667Z,7.82
2022-09-12T16:43:18.120Z,10.55
2022-09-12T16:48:22.587Z,7.90
2022-09-12T16:53:26.625Z,11.38
2022-09-12T16:58:37.472Z,13.73
2022-09-12T17:03:44.917Z,13.35
2022-09-12T17:08:51.500Z,12.93
2022-09-12T17:14:06.686Z,10.77
2022-09-12T17:19:17.347Z,8.07
2022-09-12T17:24:22.057Z,9.52
2022-09-12T17:29:28.666Z,10.32
2022-09-12T17:34:32.621Z,10.23
2022-09-12T17:39:37.346Z,8.93
2022-09-12T17:49:47.559Z,11.32
2022-09-12T17:54:51.265Z,7.90
2022-09-12T17:59:57.206Z,11.10
2022-09-12T18:05:00.912Z,8.90
2022-09-12T18:10:05.459Z,7.57
2022-09-12T18:15:13.541Z,12.15
2022-09-12T18:20:18.235Z,8.52
2022-09-12T18:25:23.807Z,8.32
2022-09-12T18:30:31.858Z,8.52
2022-09-12T18:35:36.041Z,6.85
2022-09-12T18:40:40.218Z,13.73
2022-09-12T18:45:46.376Z,9.63
2022-09-12T18:50:50.049Z,9.00
2022-09-12T18:55:54.169Z,10.57
2022-09-12T19:01:00.227Z,13.35
2022-09-12T19:06:08.513Z,8.63
2022-09-12T19:11:13.183Z,10.75
2022-09-12T19:16:21.344Z,11.77
2022-09-12T19:21:28.398Z,12.25
2022-09-12T19:26:33.112Z,17.23
2022-09-12T19:31:38.682Z,17.85
2022-09-12T19:36:45.867Z,17.52
2022-09-12T19:41:50.346Z,19.08
2022-09-12T19:46:55.855Z,19.80
2022-09-12T19:51:59.976Z,13.48
2022-09-12T19:57:04.286Z,11.85
2022-09-12T20:02:09.922Z,11.45
2022-09-12T20:07:13.308Z,12.48
2022-09-12T20:12:17.457Z,16.50
2022-09-12T20:17:22.941Z,10.80
2022-09-12T20:22:26.285Z,9.27
2022-09-12T20:27:30.564Z,8.45
2022-09-12T20:32:35.357Z,8.43
2022-09-12T20:42:44.213Z,7.18
2022-09-12T20:47:49.672Z,9.55
2022-09-12T20:52:53.039Z,8.98
2022-09-12T20:57:57.119Z,8.07
2022-09-12T21:03:02.132Z,8.32
2022-09-12T21:08:06.985Z,7.22
2022-09-12T21:13:11.029Z,8.68
2022-09-12T21:18:16.656Z,16.23
2022-09-12T21:23:20.033Z,8.65
2022-09-12T21:28:24.888Z,10.35
2022-09-12T21:38:34.245Z,9.57
2022-09-12T21:43:38.571Z,11.07
2022-09-12T21:48:44.759Z,7.53
2022-09-12T21:53:48.232Z,7.57
2022-09-12T21:58:52.376Z,7.97
2022-09-12T22:03:57.144Z,8.43
2022-09-12T22:09:01.180Z,8.65
2022-09-12T22:14:04.809Z,10.23
2022-09-12T22:19:10.436Z,10.70
2022-09-12T22:24:28.869Z,6.72
2022-09-12T22:29:33.146Z,6.80
2022-09-12T22:34:37.876Z,9.10
2022-09-12T22:39:42.325Z,9.23
2022-09-12T22:44:45.694Z,8.82
2022-09-12T22:49:51.251Z,8.25
2022-09-12T22:54:54.566Z,9.30
2022-09-12T22:59:58.634Z,6.57
2022-09-12T23:05:03.353Z,8.53
2022-09-12T23:10:08.666Z,6.82
2022-09-12T23:15:12.554Z,8.57
2022-09-12T23:20:18.249Z,7.70
2022-09-12T23:25:23.667Z,7.70
2022-09-12T23:30:27.856Z,7.07
2022-09-12T23:35:33.325Z,8.00
2022-09-12T23:40:37.365Z,8.60
2022-09-12T23:45:41.580Z,8.73
2022-09-12T23:50:48.476Z,7.03
2022-09-12T23:55:52.707Z,8.68
